ADDS METAR Data INFO
IDs: Format: Raw Decoded Include TAF

Data at: 0355 UTC 19 Jul 2018

KALN 190335Z AUTO 07005KT 10SM CLR 21/19 A3001 RMK AO2 T02130185
KALN 190315Z AUTO 08005KT 10SM CLR 22/19 A3001 RMK AO2 T02170187
KALN 190250Z 08008KT 10SM SCT250 22/19 A3000
KALN 190155Z 09008KT 10SM SCT250 23/20 A2999
KALN 190055Z 09008KT 10SM SCT250 25/20 A3000
KALN 182351Z 09009KT 10SM FEW045 SCT250 27/20 A3000
KALN 182248Z 10011KT 10SM SCT043 SCT050 SCT250 28/20 A3000
KALN 182150Z 09006KT 10SM SCT048 28/21 A3001
KALN 182050Z 08007KT 10SM FEW200 28/21 A3001
KALN 181950Z 09008KT 10SM FEW200 28/20 A3004
KALN 181850Z 08005KT 10SM FEW200 28/20 A3007
KALN 181750Z 10005KT 10SM FEW200 27/20 A3007
KALN 181645Z 10008KT 10SM FEW200 26/19 A3009
KALN 181545Z 10008KT 10SM FEW200 25/19 A3010
KALN 181445Z 10008KT 10SM FEW200 24/18 A3009
KALN 181346Z 10008KT 10SM FEW200 22/18 A3009
KALN 181248Z 10008KT 10SM SCT200 20/18 A3009
KALN 181145Z 08006KT 10SM SCT200 19/18 A3008
KALN 181135Z AUTO 09005KT 10SM CLR 19/19 A3008 RMK AO2 T01910185
KALN 181115Z AUTO 08005KT 10SM CLR 19/19 A3008 RMK AO2 T01900185
KALN 181055Z AUTO 07006KT 10SM CLR 19/19 A3007 RMK AO2 T01910188 TSNO
KALN 181035Z AUTO 07006KT 10SM CLR 19/19 A3007 RMK AO2 T01920190
KALN 181015Z AUTO 08003KT 10SM CLR 19/19 A3007 RMK AO2 T01880187
KALN 180955Z AUTO 00000KT 10SM CLR 19/19 A3006 RMK AO2 T01900188
KALN 180935Z AUTO 05003KT 10SM CLR 19/19 A3006 RMK AO2 T01880188
KALN 180915Z AUTO 00000KT 10SM CLR 20/19 A3006 RMK AO2 T01950190
KALN 180855Z AUTO 00000KT 10SM CLR 19/19 A3006 RMK AO2 T01850185
KALN 180835Z AUTO 00000KT 10SM CLR 19/19 A3006 RMK AO2 T01910191
KALN 180815Z AUTO 00000KT 10SM CLR 19/19 A3006 RMK AO2 T01910191
KALN 180755Z AUTO 00000KT 10SM CLR 19/19 A3006 RMK AO2 T01890189
KALN 180735Z AUTO 00000KT 10SM CLR 20/20 A3006 RMK AO2 T01960196
KALN 180715Z AUTO 00000KT 10SM CLR 20/20 A3006 RMK AO2 T02000199
KALN 180655Z AUTO 00000KT 10SM CLR 20/20 A3007 RMK AO2 T01970197
KALN 180635Z AUTO 00000KT 10SM CLR 20/20 A3006 RMK AO2 T02000200
KALN 180615Z AUTO 00000KT 10SM CLR 20/20 A3006 RMK AO2 T02000200
KALN 180555Z AUTO 00000KT 10SM CLR 20/20 A3006 RMK AO2 T02020202 10267 20202 402970202
KALN 180535Z AUTO 00000KT 10SM CLR 20/20 A3006 RMK AO2 T02040204
KALN 180515Z AUTO 00000KT 10SM CLR 21/21 A3007 RMK AO2 T02060206
KALN 180455Z AUTO 00000KT 10SM CLR 21/21 A3007 RMK AO2 T02080208
KALN 180435Z AUTO 00000KT 10SM CLR 21/21 A3007 RMK AO2 T02100210
KALN 180415Z AUTO 00000KT 10SM CLR 21/21 A3007 RMK AO2 T02070207
KALN 180355Z AUTO 00000KT 10SM CLR 22/21 A3007 RMK AO2 T02190209
KALN 180335Z AUTO 00000KT 10SM CLR 23/21 A3006 RMK AO2 T02280207
KALN 180315Z AUTO 00000KT 10SM CLR 23/21 A3006 RMK AO2 T02260210
KALN 180250Z 00000KT 10SM SCT200 22/21 A3006
KALN 180150Z 00000KT 10SM SCT200 24/22 A3004
KALN 180050Z 00000KT 10SM SCT200 25/21 A3004
KALN 172350Z 00000KT 10SM SCT200 27/21 A3003
KALN 172250Z 03005KT 10SM SCT200 28/21 A3003
KALN 172145Z 07006KT 10SM BKN200 29/20 A3004
KALN 172045Z 07006KT 10SM BKN200 29/21 A3004
KALN 171945Z 05006KT 10SM BKN200 29/22 A3005
KALN 171850Z 03006KT 10SM SCT034 BKN200 29/22 A3006
KALN 171745Z 03006KT 10SM FEW035 BKN200 28/21 A3007
KALN 171645Z 05006KT 10SM FEW035 BKN200 27/21 A3006